createdAt,value
2019-04-07T00:02:31.517Z,56.96
2019-04-07T00:05:11.086Z,57.05
2019-04-07T00:07:37.836Z,57.19
2019-04-07T00:10:10.128Z,57.30
2019-04-07T00:12:41.751Z,57.33
2019-04-07T00:15:13.975Z,57.31
2019-04-07T00:17:45.608Z,57.46
2019-04-07T00:20:17.629Z,57.66
2019-04-07T00:22:50.031Z,57.78
2019-04-07T00:25:22.660Z,57.81
2019-04-07T00:27:54.318Z,57.88
2019-04-07T00:30:26.214Z,57.97
2019-04-07T00:32:58.429Z,58.13
2019-04-07T00:35:32.576Z,58.23
2019-04-07T00:38:03.749Z,58.49
2019-04-07T00:40:36.226Z,58.57
2019-04-07T00:43:08.067Z,58.59
2019-04-07T00:45:40.550Z,58.91
2019-04-07T00:48:13.176Z,59.01
2019-04-07T00:50:45.114Z,59.08
2019-04-07T00:53:16.988Z,59.14
2019-04-07T00:55:48.744Z,59.27
2019-04-07T00:58:20.636Z,59.41
2019-04-07T01:00:53.017Z,59.61
2019-04-07T01:03:25.990Z,59.91
2019-04-07T01:05:57.827Z,60.17
2019-04-07T01:08:30.919Z,60.29
2019-04-07T01:11:03.485Z,60.32
2019-04-07T01:13:36.258Z,60.40
2019-04-07T01:16:07.933Z,60.40
2019-04-07T01:18:40.498Z,60.47
2019-04-07T01:21:12.789Z,60.41
2019-04-07T01:23:44.478Z,60.55
2019-04-07T01:26:16.361Z,61.08
2019-04-07T01:28:48.484Z,61.15
2019-04-07T01:31:20.935Z,61.36
2019-04-07T01:33:53.171Z,61.57
2019-04-07T01:36:24.994Z,61.78
2019-04-07T01:38:56.745Z,61.93
2019-04-07T01:41:48.445Z,62.08
2019-04-07T01:44:22.009Z,62.40
2019-04-07T01:47:10.503Z,62.56
2019-04-07T01:49:47.611Z,62.90
2019-04-07T01:52:36.562Z,62.92
2019-04-07T01:55:13.008Z,63.08
2019-04-07T01:58:06.156Z,63.46
2019-04-07T02:00:57.591Z,63.43
2019-04-07T02:03:31.975Z,63.42
2019-04-07T02:06:11.748Z,63.53
2019-04-07T02:08:45.400Z,63.72
2019-04-07T02:11:22.114Z,63.96
2019-04-07T02:13:58.485Z,64.36
2019-04-07T02:16:31.868Z,64.60
2019-04-07T02:19:05.145Z,64.82
2019-04-07T02:21:48.145Z,65.17
2019-04-07T02:24:37.645Z,65.45
2019-04-07T02:27:17.960Z,65.77
2019-04-07T02:29:51.270Z,66.04
2019-04-07T02:32:25.757Z,66.28
2019-04-07T02:35:16.563Z,66.43
2019-04-07T02:37:58.917Z,66.51
2019-04-07T02:40:35.382Z,66.54
2019-04-07T02:43:12.413Z,66.61
2019-04-07T02:45:45.643Z,66.70
2019-04-07T02:48:35.427Z,66.94
2019-04-07T02:51:26.205Z,66.81
2019-04-07T02:54:00.767Z,66.81
2019-04-07T02:56:49.498Z,66.86
2019-04-07T02:59:32.022Z,66.86
2019-04-07T03:02:05.871Z,66.83
2019-04-07T03:04:56.751Z,66.95
2019-04-07T03:07:48.805Z,66.96
2019-04-07T03:10:22.808Z,66.90
2019-04-07T03:13:06.176Z,66.89
2019-04-07T03:15:40.963Z,66.85
2019-04-07T03:18:17.465Z,66.89
2019-04-07T03:20:56.905Z,66.83
2019-04-07T03:23:36.547Z,66.79
2019-04-07T03:26:25.798Z,66.76
2019-04-07T03:29:11.851Z,66.71
2019-04-07T03:31:46.720Z,66.87
2019-04-07T03:34:22.899Z,66.87
2019-04-07T03:37:27.861Z,67.14
2019-04-07T03:39:54.950Z,67.25
2019-04-07T03:42:38.524Z,67.16
2019-04-07T03:45:15.733Z,67.10
2019-04-07T03:48:08.458Z,67.02
2019-04-07T03:50:44.542Z,66.87
2019-04-07T03:53:30.490Z,66.78
2019-04-07T03:56:04.058Z,66.94
2019-04-07T03:58:40.939Z,66.95
2019-04-07T04:01:20.861Z,66.82
2019-04-07T04:04:00.724Z,66.66
2019-04-07T04:06:51.126Z,66.30
2019-04-07T04:09:38.397Z,65.65
2019-04-07T04:12:11.818Z,65.08
2019-04-07T04:14:47.875Z,64.48
2019-04-07T04:17:19.831Z,63.77
2019-04-07T04:19:51.917Z,63.24
2019-04-07T04:22:23.610Z,62.63
2019-04-07T04:24:55.611Z,62.61
2019-04-07T04:27:28.134Z,62.02
2019-04-07T04:30:00.931Z,61.47
2019-04-07T04:32:33.060Z,61.21
2019-04-07T04:35:07.204Z,61.04
2019-04-07T04:37:45.074Z,60.54
2019-04-07T04:40:14.080Z,60.20
2019-04-07T04:42:45.834Z,59.90
2019-04-07T04:45:17.903Z,59.75
2019-04-07T04:47:49.786Z,59.31
2019-04-07T04:50:22.178Z,58.86
2019-04-07T04:52:54.526Z,58.49
2019-04-07T04:55:26.273Z,58.11
2019-04-07T04:57:58.243Z,57.74
2019-04-07T05:00:30.931Z,57.20
2019-04-07T05:03:02.824Z,56.60
2019-04-07T05:05:35.626Z,55.94
2019-04-07T05:08:08.248Z,55.85
2019-04-07T05:10:40.560Z,55.70
2019-04-07T05:13:12.500Z,55.99
2019-04-07T05:15:44.577Z,55.83
2019-04-07T05:18:16.691Z,54.95
2019-04-07T05:20:49.098Z,54.71
2019-04-07T05:23:21.473Z,54.43
2019-04-07T05:25:53.337Z,54.68
2019-04-07T05:28:25.479Z,53.98
2019-04-07T05:30:57.967Z,53.33
2019-04-07T05:33:29.742Z,52.27
2019-04-07T05:36:01.527Z,51.76
2019-04-07T05:38:33.086Z,51.99
2019-04-07T05:41:05.420Z,51.57
2019-04-07T05:43:38.320Z,51.25
2019-04-07T05:46:09.906Z,51.04
2019-04-07T05:48:42.123Z,50.43
2019-04-07T05:51:14.361Z,50.60
2019-04-07T05:53:48.101Z,49.83
2019-04-07T05:56:19.852Z,49.34
2019-04-07T05:58:52.749Z,48.67
2019-04-07T06:01:24.665Z,48.65
2019-04-07T06:03:56.700Z,49.40
2019-04-07T06:06:28.480Z,48.94
2019-04-07T06:09:00.426Z,48.77
2019-04-07T06:11:35.266Z,48.90
2019-04-07T06:14:05.878Z,48.80
2019-04-07T06:16:37.869Z,48.79
2019-04-07T06:19:09.723Z,48.30
2019-04-07T06:21:41.698Z,48.79
2019-04-07T06:24:13.651Z,48.01
2019-04-07T06:26:48.119Z,48.48
2019-04-07T06:29:19.918Z,47.89
2019-04-07T06:31:51.797Z,47.92
2019-04-07T06:34:23.821Z,48.34
2019-04-07T06:36:56.856Z,48.46
2019-04-07T06:39:31.611Z,50.58
2019-04-07T06:42:02.775Z,50.62
2019-04-07T06:44:35.629Z,49.91
2019-04-07T06:47:18.719Z,50.21
2019-04-07T06:49:55.205Z,49.33
2019-04-07T06:52:44.876Z,49.82
2019-04-07T06:55:36.340Z,49.25
2019-04-07T06:58:19.740Z,49.48
2019-04-07T07:01:12.187Z,49.31
2019-04-07T07:03:58.544Z,48.90
2019-04-07T07:06:31.952Z,48.73
2019-04-07T07:09:15.736Z,48.37
2019-04-07T07:11:50.711Z,48.99
2019-04-07T07:14:44.918Z,49.28
2019-04-07T07:17:19.523Z,48.72
2019-04-07T07:20:04.392Z,48.29
2019-04-07T07:22:55.147Z,48.12
2019-04-07T07:25:29.855Z,48.08
2019-04-07T07:28:01.575Z,46.86
2019-04-07T07:30:33.295Z,46.99
2019-04-07T07:33:08.863Z,47.02
2019-04-07T07:35:38.887Z,47.15
2019-04-07T07:38:10.629Z,47.37
2019-04-07T07:40:42.618Z,46.66
2019-04-07T07:43:14.390Z,47.20
2019-04-07T07:45:48.165Z,45.84
2019-04-07T07:48:20.890Z,45.52
2019-04-07T07:50:52.673Z,46.69
2019-04-07T07:53:27.200Z,44.97
2019-04-07T07:55:58.006Z,44.94
2019-04-07T07:58:32.618Z,44.71
2019-04-07T08:01:04.308Z,44.33
2019-04-07T08:03:36.203Z,44.57
2019-04-07T08:06:08.402Z,46.04
2019-04-07T08:08:40.559Z,44.97
2019-04-07T08:11:15.334Z,45.22
2019-04-07T08:13:46.662Z,44.68
2019-04-07T08:16:19.266Z,44.18
2019-04-07T08:18:51.088Z,43.65
2019-04-07T08:21:23.662Z,43.21
2019-04-07T08:23:55.711Z,42.75
2019-04-07T08:26:27.855Z,43.96
2019-04-07T08:29:00.094Z,43.75
2019-04-07T08:31:32.625Z,43.87
2019-04-07T08:34:04.337Z,42.24
2019-04-07T08:36:36.263Z,43.56
2019-04-07T08:39:19.509Z,42.45
2019-04-07T08:41:42.751Z,42.57
2019-04-07T08:44:15.124Z,42.07
2019-04-07T08:46:47.122Z,41.21
2019-04-07T08:49:21.150Z,42.65
2019-04-07T08:51:52.566Z,42.52
2019-04-07T08:54:24.569Z,42.74
2019-04-07T08:56:58.120Z,42.84
2019-04-07T08:59:30.339Z,42.12
2019-04-07T09:02:02.152Z,40.72
2019-04-07T09:04:34.457Z,40.35
2019-04-07T09:07:06.698Z,40.84
2019-04-07T09:09:44.861Z,40.06
2019-04-07T09:12:11.662Z,41.76
2019-04-07T09:14:44.085Z,39.96
2019-04-07T09:17:30.004Z,41.20
2019-04-07T09:19:58.293Z,41.26
2019-04-07T09:22:44.057Z,40.07
2019-04-07T09:25:27.233Z,40.75
2019-04-07T09:28:01.002Z,40.31
2019-04-07T09:30:34.501Z,39.42
2019-04-07T09:33:09.021Z,38.44
2019-04-07T09:35:59.352Z,40.08
2019-04-07T09:38:33.405Z,37.98
2019-04-07T09:41:07.350Z,40.16
2019-04-07T09:43:45.052Z,39.95
2019-04-07T09:46:24.927Z,38.07
2019-04-07T09:49:01.872Z,39.38
2019-04-07T09:51:41.236Z,37.73
2019-04-07T09:54:13.403Z,39.01
2019-04-07T09:56:49.764Z,39.44
2019-04-07T09:59:30.692Z,39.11
2019-04-07T10:02:19.639Z,38.81
2019-04-07T10:05:05.330Z,38.67
2019-04-07T10:07:42.812Z,39.22
2019-04-07T10:10:19.509Z,38.77
2019-04-07T10:12:56.607Z,38.22
2019-04-07T10:15:46.452Z,37.84
2019-04-07T10:18:22.938Z,38.92
2019-04-07T10:21:12.503Z,38.69
2019-04-07T10:23:50.610Z,38.59
2019-04-07T10:26:33.704Z,39.01
2019-04-07T10:29:07.298Z,39.05
2019-04-07T10:31:41.514Z,37.83
2019-04-07T10:34:31.835Z,38.80
2019-04-07T10:37:20.940Z,38.85
2019-04-07T10:39:59.367Z,37.94
2019-04-07T10:42:35.892Z,39.03
2019-04-07T10:45:16.156Z,39.81
2019-04-07T10:48:02.483Z,39.62
2019-04-07T10:50:44.761Z,38.65
2019-04-07T10:53:18.236Z,38.56
2019-04-07T10:55:57.655Z,38.77
2019-04-07T10:58:34.186Z,38.40
2019-04-07T11:01:16.823Z,37.96
2019-04-07T11:04:06.879Z,38.64
2019-04-07T11:06:52.653Z,38.66
2019-04-07T11:09:30.031Z,39.74
2019-04-07T11:12:21.896Z,38.08
2019-04-07T11:14:58.962Z,37.69
2019-04-07T11:17:32.618Z,38.01
2019-04-07T11:20:23.645Z,38.47
2019-04-07T11:23:06.232Z,37.59
2019-04-07T11:25:46.121Z,38.85
2019-04-07T11:28:29.068Z,38.05
2019-04-07T11:31:02.413Z,38.93
2019-04-07T11:33:36.194Z,38.60
2019-04-07T11:36:18.024Z,38.05
2019-04-07T11:38:56.729Z,38.57
2019-04-07T11:41:34.025Z,38.51
2019-04-07T11:44:10.602Z,37.72
2019-04-07T11:46:44.246Z,37.85
2019-04-07T11:49:21.492Z,38.08
2019-04-07T11:51:55.603Z,38.67
2019-04-07T11:54:32.664Z,36.81
2019-04-07T11:57:13.568Z,37.16
2019-04-07T11:59:59.021Z,37.48
2019-04-07T12:02:33.007Z,38.75
2019-04-07T12:05:14.790Z,37.02
2019-04-07T12:08:01.760Z,38.38
2019-04-07T12:10:58.583Z,37.90
2019-04-07T12:13:26.664Z,38.85
2019-04-07T12:16:00.458Z,37.25
2019-04-07T12:18:53.403Z,37.79
2019-04-07T12:21:27.858Z,37.31
2019-04-07T12:24:01.606Z,37.07
2019-04-07T12:26:43.916Z,38.18
2019-04-07T12:29:23.283Z,37.70
2019-04-07T12:32:12.023Z,38.44
2019-04-07T12:34:51.223Z,38.82
2019-04-07T12:37:24.660Z,37.00
2019-04-07T12:40:01.193Z,37.65
2019-04-07T12:42:43.384Z,37.43
2019-04-07T12:45:19.856Z,37.37
2019-04-07T12:48:05.957Z,37.85
2019-04-07T12:50:56.269Z,38.52
2019-04-07T12:53:36.551Z,37.79
2019-04-07T12:56:26.438Z,37.94
2019-04-07T12:59:07.767Z,38.66
2019-04-07T13:01:44.574Z,38.37
2019-04-07T13:04:21.869Z,38.00
2019-04-07T13:06:55.636Z,38.19
2019-04-07T13:09:46.133Z,38.09
2019-04-07T13:12:22.963Z,37.03
2019-04-07T13:15:14.048Z,37.22
2019-04-07T13:17:50.642Z,37.93
2019-04-07T13:20:42.658Z,37.19
2019-04-07T13:23:22.250Z,37.59
2019-04-07T13:25:56.718Z,37.65
2019-04-07T13:28:32.777Z,37.83
2019-04-07T13:31:05.943Z,37.36
2019-04-07T13:33:42.179Z,37.54
2019-04-07T13:36:28.064Z,37.53
2019-04-07T13:39:07.556Z,37.77
2019-04-07T13:41:45.875Z,37.70
2019-04-07T13:44:28.374Z,37.52
2019-04-07T13:47:07.317Z,37.79
2019-04-07T13:49:59.021Z,37.38
2019-04-07T13:52:41.931Z,37.69
2019-04-07T13:55:19.443Z,37.11
2019-04-07T13:57:59.539Z,38.17
2019-04-07T14:00:46.686Z,37.37
2019-04-07T14:03:25.227Z,37.02
2019-04-07T14:06:05.615Z,37.24
2019-04-07T14:08:51.748Z,37.20
2019-04-07T14:11:53.435Z,37.36
2019-04-07T14:14:28.423Z,36.93
2019-04-07T14:17:08.340Z,37.66
2019-04-07T14:19:44.537Z,37.39
2019-04-07T14:22:19.279Z,38.01
2019-04-07T14:24:53.715Z,36.89
2019-04-07T14:27:47.182Z,37.09
2019-04-07T14:30:24.488Z,36.91
2019-04-07T14:33:01.158Z,37.13
2019-04-07T14:35:44.209Z,36.81
2019-04-07T14:38:17.573Z,37.04
2019-04-07T14:41:07.487Z,37.65
2019-04-07T14:43:50.782Z,36.33
2019-04-07T14:46:24.198Z,36.87
2019-04-07T14:49:15.598Z,36.92
2019-04-07T14:51:51.460Z,36.47
2019-04-07T14:54:43.981Z,36.98
2019-04-07T14:57:26.186Z,37.34
2019-04-07T15:00:17.257Z,37.07
2019-04-07T15:02:49.877Z,37.13
2019-04-07T15:05:26.044Z,37.41
2019-04-07T15:08:05.064Z,37.88
2019-04-07T15:10:38.499Z,37.92
2019-04-07T15:13:12.057Z,37.32
2019-04-07T15:15:44.294Z,37.27
2019-04-07T15:18:16.512Z,37.72
2019-04-07T15:20:49.118Z,37.76
2019-04-07T15:23:21.663Z,38.31
2019-04-07T15:25:53.315Z,38.13
2019-04-07T15:28:24.976Z,37.88
2019-04-07T15:30:56.895Z,38.75
2019-04-07T15:33:31.432Z,38.63
2019-04-07T15:36:02.202Z,38.50
2019-04-07T15:38:34.490Z,38.82
2019-04-07T15:41:09.893Z,39.44
2019-04-07T15:43:40.113Z,39.55
2019-04-07T15:46:13.033Z,39.94
2019-04-07T15:48:45.459Z,39.25
2019-04-07T15:51:17.554Z,39.34
2019-04-07T15:53:51.656Z,39.27
2019-04-07T15:56:24.107Z,39.23
2019-04-07T15:59:00.109Z,39.52
2019-04-07T16:01:31.417Z,39.60
2019-04-07T16:04:05.731Z,39.73
2019-04-07T16:06:37.134Z,40.00
2019-04-07T16:09:13.967Z,40.54
2019-04-07T16:11:44.367Z,41.10
2019-04-07T16:14:16.113Z,41.37
2019-04-07T16:16:47.779Z,41.54
2019-04-07T16:19:28.692Z,40.85
2019-04-07T16:21:54.930Z,41.53
2019-04-07T16:24:26.980Z,41.91
2019-04-07T16:27:02.357Z,41.75
2019-04-07T16:29:33.008Z,42.18
2019-04-07T16:32:04.841Z,42.20
2019-04-07T16:34:38.804Z,42.21
2019-04-07T16:37:10.419Z,42.53
2019-04-07T16:39:42.655Z,42.79
2019-04-07T16:42:15.380Z,43.06
2019-04-07T16:44:47.257Z,43.25
2019-04-07T16:47:23.212Z,43.22
2019-04-07T16:49:52.463Z,43.30
2019-04-07T16:52:24.470Z,43.12
2019-04-07T16:54:56.126Z,43.26
2019-04-07T16:57:31.093Z,43.02
2019-04-07T17:00:01.710Z,43.37
2019-04-07T17:02:34.907Z,43.82
2019-04-07T17:05:07.864Z,44.07
2019-04-07T17:07:39.576Z,44.62
2019-04-07T17:10:11.840Z,45.10
2019-04-07T17:12:44.006Z,45.38
2019-04-07T17:15:15.756Z,45.95
2019-04-07T17:17:51.289Z,46.49
2019-04-07T17:20:21.019Z,46.82
2019-04-07T17:22:53.020Z,47.22
2019-04-07T17:25:25.572Z,47.82
2019-04-07T17:28:00.565Z,48.16
2019-04-07T17:30:30.424Z,48.37
2019-04-07T17:33:03.237Z,48.41
2019-04-07T17:35:35.910Z,48.83
2019-04-07T17:38:09.383Z,49.39
2019-04-07T17:40:44.323Z,49.64
2019-04-07T17:43:46.548Z,49.81
2019-04-07T17:46:09.218Z,50.18
2019-04-07T17:48:53.101Z,50.94
2019-04-07T17:51:27.485Z,50.87
2019-04-07T17:54:04.629Z,51.09
2019-04-07T17:56:40.655Z,51.31
2019-04-07T17:59:17.133Z,51.57
2019-04-07T18:01:57.443Z,52.57
2019-04-07T18:04:35.190Z,53.27
2019-04-07T18:07:21.306Z,53.48
2019-04-07T18:10:10.031Z,53.55
2019-04-07T18:13:00.068Z,54.28
2019-04-07T18:15:46.543Z,54.58
2019-04-07T18:18:32.227Z,54.52
2019-04-07T18:21:11.675Z,54.61
2019-04-07T18:23:59.767Z,54.86
2019-04-07T18:26:35.420Z,54.94
2019-04-07T18:29:14.724Z,55.40
2019-04-07T18:32:04.997Z,55.73
2019-04-07T18:34:50.638Z,55.84
2019-04-07T18:37:42.185Z,56.18
2019-04-07T18:40:26.299Z,56.27
2019-04-07T18:43:15.699Z,56.73
2019-04-07T18:45:51.360Z,56.85
2019-04-07T18:48:27.542Z,56.93
2019-04-07T18:50:59.115Z,56.73
2019-04-07T18:53:42.818Z,57.00
2019-04-07T18:56:22.592Z,56.96
2019-04-07T18:59:12.871Z,56.86
2019-04-07T19:02:03.215Z,56.97
2019-04-07T19:04:53.430Z,56.91
2019-04-07T19:07:32.880Z,56.83
2019-04-07T19:10:24.118Z,56.72
2019-04-07T19:13:05.710Z,56.40
2019-04-07T19:15:40.064Z,56.07
2019-04-07T19:18:30.879Z,56.29
2019-04-07T19:21:16.660Z,56.75
2019-04-07T19:23:50.852Z,56.60
2019-04-07T19:26:42.689Z,56.28
2019-04-07T19:29:32.411Z,56.32
2019-04-07T19:32:12.002Z,56.47
2019-04-07T19:35:02.634Z,56.64
2019-04-07T19:37:47.350Z,56.64
2019-04-07T19:40:32.515Z,56.83
2019-04-07T19:43:18.089Z,56.76
2019-04-07T19:45:58.561Z,57.38
2019-04-07T19:48:49.096Z,57.67
2019-04-07T19:51:28.331Z,57.42
2019-04-07T19:54:06.763Z,57.23
2019-04-07T19:56:43.668Z,57.52
2019-04-07T19:59:17.409Z,57.68
2019-04-07T20:01:59.070Z,57.82
2019-04-07T20:04:36.030Z,57.63
2019-04-07T20:07:28.591Z,57.36
2019-04-07T20:10:01.087Z,57.38
2019-04-07T20:12:37.969Z,57.21
2019-04-07T20:15:30.612Z,57.28
2019-04-07T20:18:19.197Z,57.65
2019-04-07T20:20:58.324Z,57.80
2019-04-07T20:23:34.587Z,57.70
2019-04-07T20:26:26.650Z,57.67
2019-04-07T20:29:09.396Z,57.27
2019-04-07T20:32:00.541Z,56.92
2019-04-07T20:34:43.357Z,56.75
2019-04-07T20:37:28.798Z,56.63
2019-04-07T20:40:19.342Z,56.97
2019-04-07T20:42:58.272Z,57.46
2019-04-07T20:45:33.601Z,57.22
2019-04-07T20:48:07.336Z,57.17
2019-04-07T20:50:46.997Z,57.46
2019-04-07T20:53:29.939Z,58.00
2019-04-07T20:56:04.261Z,58.30
2019-04-07T20:58:46.453Z,58.63
2019-04-07T21:01:18.706Z,59.08
2019-04-07T21:04:06.441Z,59.39
2019-04-07T21:06:49.619Z,59.52
2019-04-07T21:09:34.565Z,59.54
2019-04-07T21:12:23.131Z,59.47
2019-04-07T21:15:15.403Z,59.31
2019-04-07T21:17:46.541Z,58.70
2019-04-07T21:20:32.419Z,58.61
2019-04-07T21:23:09.148Z,58.40
2019-04-07T21:25:59.404Z,59.16
2019-04-07T21:28:35.132Z,59.45
2019-04-07T21:31:21.442Z,59.70
2019-04-07T21:33:57.810Z,60.01
2019-04-07T21:36:37.587Z,59.24
2019-04-07T21:39:16.316Z,59.14
2019-04-07T21:41:56.278Z,59.30
2019-04-07T21:44:35.886Z,59.31
2019-04-07T21:47:12.017Z,59.21
2019-04-07T21:49:48.019Z,59.47
2019-04-07T21:52:23.365Z,59.45
2019-04-07T21:55:12.554Z,58.98
2019-04-07T21:57:50.738Z,58.64
2019-04-07T22:00:37.690Z,58.34
2019-04-07T22:03:26.951Z,58.01
2019-04-07T22:06:03.505Z,57.36
2019-04-07T22:08:43.354Z,56.56
2019-04-07T22:11:13.358Z,56.25
2019-04-07T22:13:45.333Z,55.64
2019-04-07T22:16:17.194Z,54.72
2019-04-07T22:18:49.134Z,54.56
2019-04-07T22:21:22.352Z,53.69
2019-04-07T22:23:54.509Z,53.61
2019-04-07T22:26:26.416Z,53.17
2019-04-07T22:29:01.249Z,53.43
2019-04-07T22:31:36.719Z,53.17
2019-04-07T22:34:09.004Z,53.07
2019-04-07T22:36:41.655Z,52.92
2019-04-07T22:39:14.202Z,53.03
2019-04-07T22:41:46.320Z,52.90
2019-04-07T22:44:20.411Z,52.77
2019-04-07T22:46:52.326Z,52.88
2019-04-07T22:49:28.448Z,52.58
2019-04-07T22:51:57.906Z,52.71
2019-04-07T22:54:31.256Z,52.41
2019-04-07T22:57:03.478Z,52.21
2019-04-07T22:59:36.359Z,52.29
2019-04-07T23:02:08.600Z,52.35
2019-04-07T23:04:40.580Z,51.99
2019-04-07T23:07:12.371Z,52.01
2019-04-07T23:09:44.328Z,51.88
2019-04-07T23:12:16.875Z,51.63
2019-04-07T23:14:48.557Z,51.55
2019-04-07T23:17:20.315Z,51.13
2019-04-07T23:19:52.508Z,51.06
2019-04-07T23:22:25.549Z,51.10
2019-04-07T23:24:57.193Z,50.98
2019-04-07T23:27:29.735Z,50.68
2019-04-07T23:30:01.678Z,51.31
2019-04-07T23:32:34.227Z,51.19
2019-04-07T23:35:08.283Z,51.36
2019-04-07T23:37:40.031Z,51.21
2019-04-07T23:40:11.990Z,50.93
2019-04-07T23:42:44.638Z,50.98
2019-04-07T23:45:16.649Z,51.31
2019-04-07T23:47:48.301Z,51.22
2019-04-07T23:50:20.260Z,51.24
2019-04-07T23:52:51.922Z,51.11
2019-04-07T23:55:24.091Z,51.28
2019-04-07T23:57:56.283Z,51.34
